sensor_id;sensor_type;location;lat;lon;timestamp;pressure;altitude;pressure_sealevel;temperature;humidity
21431;BME280;10876;49.038;10.608;2023-03-01T00:35:24;99679.50;;;-1.15;100.00
21431;BME280;10876;49.038;10.608;2023-03-01T00:37:51;99683.25;;;-1.16;100.00
21431;BME280;10876;49.038;10.608;2023-03-01T00:40:23;99688.41;;;-1.21;100.00
21431;BME280;10876;49.038;10.608;2023-03-01T00:42:50;99682.41;;;-1.23;100.00
21431;BME280;10876;49.038;10.608;2023-03-01T00:45:18;99682.38;;;-1.10;100.00
21431;BME280;10876;49.038;10.608;2023-03-01T00:47:45;99681.59;;;-1.17;100.00
21431;BME280;10876;49.038;10.608;2023-03-01T00:50:12;99674.94;;;-1.15;100.00
21431;BME280;10876;49.038;10.608;2023-03-01T00:52:41;99678.69;;;-1.16;100.00
21431;BME280;10876;49.038;10.608;2023-03-01T00:55:09;99687.34;;;-1.07;100.00
21431;BME280;10876;49.038;10.608;2023-03-01T00:57:36;99673.94;;;-1.14;100.00
21431;BME280;10876;49.038;10.608;2023-03-01T01:00:04;99677.44;;;-1.13;100.00
21431;BME280;10876;49.038;10.608;2023-03-01T01:02:32;99668.34;;;-1.05;100.00
21431;BME280;10876;49.038;10.608;2023-03-01T01:04:59;99671.59;;;-1.03;100.00
21431;BME280;10876;49.038;10.608;2023-03-01T01:07:27;99672.03;;;-1.00;100.00
21431;BME280;10876;49.038;10.608;2023-03-01T01:09:55;99665.41;;;-0.97;100.00
21431;BME280;10876;49.038;10.608;2023-03-01T01:12:22;99669.94;;;-0.98;100.00
21431;BME280;10876;49.038;10.608;2023-03-01T01:14:49;99659.63;;;-1.01;100.00
21431;BME280;10876;49.038;10.608;2023-03-01T01:17:17;99653.38;;;-0.95;100.00
21431;BME280;10876;49.038;10.608;2023-03-01T01:19:44;99661.28;;;-1.00;100.00
21431;BME280;10876;49.038;10.608;2023-03-01T01:22:10;99652.78;;;-1.03;100.00
21431;BME280;10876;49.038;10.608;2023-03-01T01:24:38;99654.47;;;-1.02;100.00
21431;BME280;10876;49.038;10.608;2023-03-01T01:27:06;99641.88;;;-1.15;100.00
21431;BME280;10876;49.038;10.608;2023-03-01T01:29:34;99638.13;;;-1.07;100.00
21431;BME280;10876;49.038;10.608;2023-03-01T01:32:00;99644.72;;;-1.03;100.00
21431;BME280;10876;49.038;10.608;2023-03-01T01:34:27;99636.91;;;-1.05;100.00
21431;BME280;10876;49.038;10.608;2023-03-01T01:36:54;99631.13;;;-1.08;100.00
21431;BME280;10876;49.038;10.608;2023-03-01T01:39:21;99635.84;;;-1.04;100.00
21431;BME280;10876;49.038;10.608;2023-03-01T01:41:49;99630.28;;;-1.09;100.00
21431;BME280;10876;49.038;10.608;2023-03-01T01:44:20;99625.13;;;-1.10;100.00
21431;BME280;10876;49.038;10.608;2023-03-01T01:46:50;99623.50;;;-1.18;100.00
21431;BME280;10876;49.038;10.608;2023-03-01T01:49:24;99625.75;;;-1.15;100.00
21431;BME280;10876;49.038;10.608;2023-03-01T01:51:57;99619.94;;;-1.12;100.00
21431;BME280;10876;49.038;10.608;2023-03-01T01:54:30;99605.69;;;-1.13;100.00
21431;BME280;10876;49.038;10.608;2023-03-01T01:57:02;99607.94;;;-1.03;100.00
21431;BME280;10876;49.038;10.608;2023-03-01T01:59:32;99607.13;;;-1.10;100.00
21431;BME280;10876;49.038;10.608;2023-03-01T02:02:03;99593.50;;;-1.15;100.00
21431;BME280;10876;49.038;10.608;2023-03-01T02:04:31;99600.13;;;-1.18;100.00
21431;BME280;10876;49.038;10.608;2023-03-01T02:07:01;99589.81;;;-1.21;100.00
21431;BME280;10876;49.038;10.608;2023-03-01T02:09:32;99591.44;;;-1.13;100.00
21431;BME280;10876;49.038;10.608;2023-03-01T02:12:00;99589.75;;;-1.07;100.00
21431;BME280;10876;49.038;10.608;2023-03-01T02:14:27;99589.97;;;-1.09;100.00
21431;BME280;10876;49.038;10.608;2023-03-01T02:16:56;99580.88;;;-1.15;100.00
21431;BME280;10876;49.038;10.608;2023-03-01T02:19:31;99586.88;;;-1.13;100.00
21431;BME280;10876;49.038;10.608;2023-03-01T02:22:07;99579.63;;;-1.12;100.00
21431;BME280;10876;49.038;10.608;2023-03-01T02:24:45;99581.13;;;-1.16;100.00
21431;BME280;10876;49.038;10.608;2023-03-01T02:27:19;99578.00;;;-1.13;100.00
21431;BME280;10876;49.038;10.608;2023-03-01T02:29:51;99578.19;;;-1.08;100.00
21431;BME280;10876;49.038;10.608;2023-03-01T02:32:19;99582.72;;;-1.02;100.00
21431;BME280;10876;49.038;10.608;2023-03-01T02:34:51;99574.88;;;-1.10;100.00
21431;BME280;10876;49.038;10.608;2023-03-01T02:37:19;99576.38;;;-1.14;100.00
21431;BME280;10876;49.038;10.608;2023-03-01T02:39:55;99572.38;;;-1.05;100.00
21431;BME280;10876;49.038;10.608;2023-03-01T02:42:26;99574.88;;;-1.10;100.00
21431;BME280;10876;49.038;10.608;2023-03-01T02:44:58;99570.94;;;-1.07;100.00
21431;BME280;10876;49.038;10.608;2023-03-01T02:47:25;99563.28;;;-1.04;100.00
21431;BME280;10876;49.038;10.608;2023-03-01T02:49:52;99558.31;;;-1.07;100.00
21431;BME280;10876;49.038;10.608;2023-03-01T02:52:40;99565.00;;;-1.16;100.00
21431;BME280;10876;49.038;10.608;2023-03-01T02:55:12;99557.13;;;-1.11;100.00
21431;BME280;10876;49.038;10.608;2023-03-01T02:57:42;99554.25;;;-1.16;100.00
21431;BME280;10876;49.038;10.608;2023-03-01T03:00:14;99549.06;;;-1.11;100.00
21431;BME280;10876;49.038;10.608;2023-03-01T03:02:45;99536.81;;;-1.07;100.00
21431;BME280;10876;49.038;10.608;2023-03-01T03:05:16;99534.81;;;-1.18;100.00
21431;BME280;10876;49.038;10.608;2023-03-01T03:07:45;99533.56;;;-1.16;100.00
21431;BME280;10876;49.038;10.608;2023-03-01T03:10:14;99530.28;;;-1.24;100.00
21431;BME280;10876;49.038;10.608;2023-03-01T03:12:42;99534.03;;;-1.25;100.00
21431;BME280;10876;49.038;10.608;2023-03-01T03:15:11;99528.66;;;-1.25;100.00
21431;BME280;10876;49.038;10.608;2023-03-01T03:17:39;99519.78;;;-1.26;100.00
21431;BME280;10876;49.038;10.608;2023-03-01T03:20:10;99528.47;;;-1.30;100.00
21431;BME280;10876;49.038;10.608;2023-03-01T03:22:38;99523.53;;;-1.33;100.00
21431;BME280;10876;49.038;10.608;2023-03-01T03:25:06;99521.50;;;-1.45;100.00
21431;BME280;10876;49.038;10.608;2023-03-01T03:27:36;99521.03;;;-1.28;100.00
21431;BME280;10876;49.038;10.608;2023-03-01T03:30:04;99525.41;;;-1.41;100.00
21431;BME280;10876;49.038;10.608;2023-03-01T03:32:36;99527.09;;;-1.53;100.00
21431;BME280;10876;49.038;10.608;2023-03-01T03:35:03;99529.59;;;-1.58;100.00
21431;BME280;10876;49.038;10.608;2023-03-01T03:37:35;99535.03;;;-1.71;100.00
21431;BME280;10876;49.038;10.608;2023-03-01T03:40:19;99530.03;;;-1.68;100.00
21431;BME280;10876;49.038;10.608;2023-03-01T03:42:46;99526.78;;;-1.76;100.00
21431;BME280;10876;49.038;10.608;2023-03-01T03:45:19;99530.88;;;-1.81;100.00
21431;BME280;10876;49.038;10.608;2023-03-01T03:47:47;99535.47;;;-1.88;100.00
21431;BME280;10876;49.038;10.608;2023-03-01T03:50:16;99525.56;;;-1.94;100.00
21431;BME280;10876;49.038;10.608;2023-03-01T03:52:43;99516.47;;;-1.93;100.00
21431;BME280;10876;49.038;10.608;2023-03-01T03:55:11;99518.34;;;-2.00;100.00
21431;BME280;10876;49.038;10.608;2023-03-01T03:57:41;99515.69;;;-2.00;100.00
21431;BME280;10876;49.038;10.608;2023-03-01T04:00:10;99521.84;;;-2.06;100.00
21431;BME280;10876;49.038;10.608;2023-03-01T04:02:39;99512.78;;;-2.05;100.00
21431;BME280;10876;49.038;10.608;2023-03-01T04:05:10;99515.06;;;-2.09;100.00
21431;BME280;10876;49.038;10.608;2023-03-01T04:07:38;99507.00;;;-2.15;100.00
21431;BME280;10876;49.038;10.608;2023-03-01T04:10:07;99517.34;;;-2.19;100.00
21431;BME280;10876;49.038;10.608;2023-03-01T04:12:35;99515.28;;;-2.17;100.00
21431;BME280;10876;49.038;10.608;2023-03-01T04:15:06;99508.25;;;-2.18;100.00
21431;BME280;10876;49.038;10.608;2023-03-01T04:17:39;99511.97;;;-2.12;100.00
21431;BME280;10876;49.038;10.608;2023-03-01T04:20:10;99507.44;;;-2.12;100.00
21431;BME280;10876;49.038;10.608;2023-03-01T04:22:39;99519.00;;;-2.24;100.00
21431;BME280;10876;49.038;10.608;2023-03-01T04:25:07;99516.53;;;-2.39;100.00
21431;BME280;10876;49.038;10.608;2023-03-01T04:27:39;99522.28;;;-2.36;100.00
21431;BME280;10876;49.038;10.608;2023-03-01T04:30:08;99523.94;;;-2.41;100.00
21431;BME280;10876;49.038;10.608;2023-03-01T04:32:35;99519.81;;;-2.44;100.00
21431;BME280;10876;49.038;10.608;2023-03-01T04:35:02;99512.81;;;-2.45;100.00
21431;BME280;10876;49.038;10.608;2023-03-01T04:37:34;99519.41;;;-2.54;100.00
21431;BME280;10876;49.038;10.608;2023-03-01T04:40:01;99517.34;;;-2.52;100.00
21431;BME280;10876;49.038;10.608;2023-03-01T04:42:37;99529.53;;;-2.56;100.00
21431;BME280;10876;49.038;10.608;2023-03-01T04:45:05;99528.88;;;-2.58;100.00
21431;BME280;10876;49.038;10.608;2023-03-01T04:47:39;99523.94;;;-2.61;100.00
21431;BME280;10876;49.038;10.608;2023-03-01T04:50:07;99529.31;;;-2.68;100.00
21431;BME280;10876;49.038;10.608;2023-03-01T04:52:36;99516.50;;;-2.73;100.00
21431;BME280;10876;49.038;10.608;2023-03-01T04:55:04;99519.19;;;-2.86;100.00
21431;BME280;10876;49.038;10.608;2023-03-01T04:57:35;99520.19;;;-2.87;100.00
21431;BME280;10876;49.038;10.608;2023-03-01T05:00:03;99519.38;;;-2.81;100.00
21431;BME280;10876;49.038;10.608;2023-03-01T05:02:46;99515.47;;;-2.85;100.00
21431;BME280;10876;49.038;10.608;2023-03-01T05:05:22;99517.72;;;-2.88;100.00
21431;BME280;10876;49.038;10.608;2023-03-01T05:07:53;99516.91;;;-2.89;100.00
21431;BME280;10876;49.038;10.608;2023-03-01T05:10:22;99511.13;;;-2.92;100.00
21431;BME280;10876;49.038;10.608;2023-03-01T05:12:49;99524.28;;;-3.04;100.00
21431;BME280;10876;49.038;10.608;2023-03-01T05:15:17;99524.09;;;-2.96;100.00
21431;BME280;10876;49.038;10.608;2023-03-01T05:17:44;99516.06;;;-3.03;100.00
21431;BME280;10876;49.038;10.608;2023-03-01T05:20:11;99518.09;;;-3.05;100.00
21431;BME280;10876;49.038;10.608;2023-03-01T05:22:38;99513.75;;;-3.12;100.00
21431;BME280;10876;49.038;10.608;2023-03-01T05:25:07;99512.75;;;-3.05;100.00
21431;BME280;10876;49.038;10.608;2023-03-01T05:27:34;99518.91;;;-3.11;100.00
21431;BME280;10876;49.038;10.608;2023-03-01T05:30:02;99515.19;;;-3.10;100.00
21431;BME280;10876;49.038;10.608;2023-03-01T05:32:40;99518.69;;;-3.23;100.00
21431;BME280;10876;49.038;10.608;2023-03-01T05:35:08;99514.72;;;-3.27;100.00
21431;BME280;10876;49.038;10.608;2023-03-01T05:37:40;99514.97;;;-3.22;100.00
21431;BME280;10876;49.038;10.608;2023-03-01T05:40:10;99510.84;;;-3.24;100.00
21431;BME280;10876;49.038;10.608;2023-03-01T05:42:44;99507.75;;;-3.28;100.00
21431;BME280;10876;49.038;10.608;2023-03-01T05:45:13;99510.66;;;-3.23;100.00
21431;BME280;10876;49.038;10.608;2023-03-01T05:47:42;99505.66;;;-3.32;100.00
21431;BME280;10876;49.038;10.608;2023-03-01T05:50:14;99502.63;;;-3.23;100.00
21431;BME280;10876;49.038;10.608;2023-03-01T05:52:45;99498.47;;;-3.25;100.00
21431;BME280;10876;49.038;10.608;2023-03-01T05:55:14;99503.81;;;-3.32;100.00
21431;BME280;10876;49.038;10.608;2023-03-01T05:57:41;99506.88;;;-3.35;100.00
21431;BME280;10876;49.038;10.608;2023-03-01T06:00:09;99504.84;;;-3.33;100.00
21431;BME280;10876;49.038;10.608;2023-03-01T06:02:36;99503.19;;;-3.34;100.00
21431;BME280;10876;49.038;10.608;2023-03-01T06:05:04;99511.00;;;-3.32;100.00
21431;BME280;10876;49.038;10.608;2023-03-01T06:07:31;99507.75;;;-3.28;100.00
21431;BME280;10876;49.038;10.608;2023-03-01T06:09:58;99505.28;;;-3.23;100.00
21431;BME280;10876;49.038;10.608;2023-03-01T06:12:30;99505.88;;;-3.21;100.00
21431;BME280;10876;49.038;10.608;2023-03-01T06:14:57;99504.47;;;-3.17;100.00
21431;BME280;10876;49.038;10.608;2023-03-01T06:17:24;99512.34;;;-3.08;100.00
21431;BME280;10876;49.038;10.608;2023-03-01T06:19:50;99511.47;;;-3.15;100.00
21431;BME280;10876;49.038;10.608;2023-03-01T06:22:17;99506.56;;;-3.05;100.00
21431;BME280;10876;49.038;10.608;2023-03-01T06:24:44;99503.69;;;-2.97;100.00
21431;BME280;10876;49.038;10.608;2023-03-01T06:27:11;99503.69;;;-2.97;100.00
21431;BME280;10876;49.038;10.608;2023-03-01T06:29:40;99502.47;;;-2.88;100.00
21431;BME280;10876;49.038;10.608;2023-03-01T06:32:07;99511.56;;;-2.76;100.00
21431;BME280;10876;49.038;10.608;2023-03-01T06:34:34;99514.25;;;-2.62;100.00
21431;BME280;10876;49.038;10.608;2023-03-01T06:37:01;99512.81;;;-2.45;100.00
21431;BME280;10876;49.038;10.608;2023-03-01T06:39:30;99511.50;;;-1.83;100.00
21431;BME280;10876;49.038;10.608;2023-03-01T06:41:57;99510.53;;;-1.37;100.00
21431;BME280;10876;49.038;10.608;2023-03-01T06:44:24;99505.44;;;-1.13;100.00
21431;BME280;10876;49.038;10.608;2023-03-01T06:46:53;99515.47;;;-1.33;100.00
21431;BME280;10876;49.038;10.608;2023-03-01T06:49:20;99506.44;;;-1.46;100.00
21431;BME280;10876;49.038;10.608;2023-03-01T06:51:47;99505.16;;;-1.43;100.00
21431;BME280;10876;49.038;10.608;2023-03-01T06:54:14;99506.81;;;-1.49;100.00
21431;BME280;10876;49.038;10.608;2023-03-01T06:56:43;99505.06;;;-1.23;100.00
21431;BME280;10876;49.038;10.608;2023-03-01T06:59:10;99498.31;;;-0.94;100.00
21431;BME280;10876;49.038;10.608;2023-03-01T07:01:39;99483.19;;;-0.63;100.00
21431;BME280;10876;49.038;10.608;2023-03-01T07:04:08;99491.44;;;-0.33;100.00
21431;BME280;10876;49.038;10.608;2023-03-01T07:06:35;99489.19;;;-0.36;100.00
21431;BME280;10876;49.038;10.608;2023-03-01T07:09:02;99489.38;;;-0.13;100.00
21431;BME280;10876;49.038;10.608;2023-03-01T07:11:29;99468.91;;;-0.14;100.00
21431;BME280;10876;49.038;10.608;2023-03-01T07:13:56;99467.69;;;-0.18;100.00
21431;BME280;10876;49.038;10.608;2023-03-01T07:16:23;99458.66;;;-0.05;100.00
21431;BME280;10876;49.038;10.608;2023-03-01T07:18:51;99466.00;;;0.06;100.00
21431;BME280;10876;49.038;10.608;2023-03-01T07:21:19;99462.47;;;0.24;100.00
21431;BME280;10876;49.038;10.608;2023-03-01T07:23:47;99455.81;;;0.27;100.00
21431;BME280;10876;49.038;10.608;2023-03-01T07:26:14;99454.84;;;0.39;100.00
21431;BME280;10876;49.038;10.608;2023-03-01T07:28:41;99449.00;;;0.42;100.00
21431;BME280;10876;49.038;10.608;2023-03-01T07:31:08;99451.72;;;0.24;100.00
21431;BME280;10876;49.038;10.608;2023-03-01T07:33:35;99453.50;;;0.12;100.00
21431;BME280;10876;49.038;10.608;2023-03-01T07:36:03;99450.44;;;0.27;100.00
21431;BME280;10876;49.038;10.608;2023-03-01T07:38:34;99455.00;;;0.26;100.00
21431;BME280;10876;49.038;10.608;2023-03-01T07:41:02;99451.75;;;0.54;100.00
21431;BME280;10876;49.038;10.608;2023-03-01T07:43:31;99451.22;;;0.45;100.00
21431;BME280;10876;49.038;10.608;2023-03-01T07:45:59;99442.81;;;0.72;100.00
21431;BME280;10876;49.038;10.608;2023-03-01T07:48:27;99446.06;;;0.93;100.00
21431;BME280;10876;49.038;10.608;2023-03-01T07:50:54;99449.47;;;1.00;100.00
21431;BME280;10876;49.038;10.608;2023-03-01T07:53:24;99445.03;;;1.17;100.00
21431;BME280;10876;49.038;10.608;2023-03-01T07:56:01;99434.31;;;1.41;100.00
21431;BME280;10876;49.038;10.608;2023-03-01T07:58:28;99432.31;;;1.48;100.00
21431;BME280;10876;49.038;10.608;2023-03-01T08:00:55;99437.25;;;1.63;100.00
21431;BME280;10876;49.038;10.608;2023-03-01T08:03:23;99444.41;;;1.57;100.00
21431;BME280;10876;49.038;10.608;2023-03-01T08:05:50;99434.53;;;1.51;100.00
21431;BME280;10876;49.038;10.608;2023-03-01T08:08:16;99435.34;;;1.51;100.00
21431;BME280;10876;49.038;10.608;2023-03-01T08:10:43;99440.53;;;1.76;100.00
21431;BME280;10876;49.038;10.608;2023-03-01T08:13:12;99447.06;;;2.16;100.00
21431;BME280;10876;49.038;10.608;2023-03-01T08:15:39;99442.13;;;2.24;100.00
21431;BME280;10876;49.038;10.608;2023-03-01T08:18:06;99438.38;;;2.54;100.00
21431;BME280;10876;49.038;10.608;2023-03-01T08:20:33;99445.25;;;3.02;100.00
21431;BME280;10876;49.038;10.608;2023-03-01T08:23:00;99443.00;;;2.82;100.00
21431;BME280;10876;49.038;10.608;2023-03-01T08:25:27;99438.53;;;2.47;100.00
21431;BME280;10876;49.038;10.608;2023-03-01T08:27:54;99443.25;;;2.52;100.00
21431;BME280;10876;49.038;10.608;2023-03-01T08:30:22;99436.75;;;2.53;100.00
21431;BME280;10876;49.038;10.608;2023-03-01T08:32:50;99435.31;;;2.62;100.00
21431;BME280;10876;49.038;10.608;2023-03-01T08:35:17;99440.94;;;2.73;100.00
21431;BME280;10876;49.038;10.608;2023-03-01T08:37:44;99430.94;;;3.19;100.00
21431;BME280;10876;49.038;10.608;2023-03-01T08:40:12;99422.16;;;3.45;100.00
21431;BME280;10876;49.038;10.608;2023-03-01T08:42:39;99419.13;;;3.58;100.00
21431;BME280;10876;49.038;10.608;2023-03-01T08:45:09;99409.72;;;3.83;100.00
21431;BME280;10876;49.038;10.608;2023-03-01T08:47:39;99407.66;;;3.90;100.00
21431;BME280;10876;49.038;10.608;2023-03-01T08:50:08;99399.00;;;4.32;100.00
21431;BME280;10876;49.038;10.608;2023-03-01T08:52:38;99395.94;;;4.28;100.00
21431;BME280;10876;49.038;10.608;2023-03-01T08:55:09;99395.94;;;4.50;100.00
21431;BME280;10876;49.038;10.608;2023-03-01T08:57:47;99378.75;;;4.67;100.00
21431;BME280;10876;49.038;10.608;2023-03-01T09:00:14;99375.88;;;3.86;100.00
21431;BME280;10876;49.038;10.608;2023-03-01T09:02:44;99362.03;;;4.26;100.00
21431;BME280;10876;49.038;10.608;2023-03-01T09:05:11;99354.91;;;4.42;100.00
21431;BME280;10876;49.038;10.608;2023-03-01T09:07:38;99349.38;;;4.59;100.00
21431;BME280;10876;49.038;10.608;2023-03-01T09:10:07;99337.91;;;4.51;100.00
21431;BME280;10876;49.038;10.608;2023-03-01T09:12:35;99338.34;;;4.16;100.00
21431;BME280;10876;49.038;10.608;2023-03-01T09:15:03;99332.00;;;4.60;100.00
21431;BME280;10876;49.038;10.608;2023-03-01T09:17:30;99334.66;;;4.49;100.00
21431;BME280;10876;49.038;10.608;2023-03-01T09:20:00;99324.84;;;3.99;100.00
21431;BME280;10876;49.038;10.608;2023-03-01T09:22:31;99316.00;;;4.31;100.00
21431;BME280;10876;49.038;10.608;2023-03-01T09:25:00;99319.16;;;4.77;100.00
21431;BME280;10876;49.038;10.608;2023-03-01T09:27:29;99302.69;;;5.21;100.00
21431;BME280;10876;49.038;10.608;2023-03-01T09:29:57;99293.44;;;5.64;100.00
21431;BME280;10876;49.038;10.608;2023-03-01T09:32:24;99279.50;;;5.51;100.00
21431;BME280;10876;49.038;10.608;2023-03-01T09:34:51;99276.50;;;6.05;100.00
21431;BME280;10876;49.038;10.608;2023-03-01T09:37:32;99279.09;;;5.79;100.00
21431;BME280;10876;49.038;10.608;2023-03-01T09:40:00;99273.41;;;5.81;100.00
21431;BME280;10876;49.038;10.608;2023-03-01T09:42:28;99275.94;;;5.45;100.00
21431;BME280;10876;49.038;10.608;2023-03-01T09:45:00;99267.13;;;5.75;100.00
21431;BME280;10876;49.038;10.608;2023-03-01T09:47:30;99264.50;;;5.38;100.00
21431;BME280;10876;49.038;10.608;2023-03-01T09:50:03;99269.59;;;5.82;100.00
21431;BME280;10876;49.038;10.608;2023-03-01T09:52:39;99251.56;;;6.34;100.00
21431;BME280;10876;49.038;10.608;2023-03-01T09:55:11;99241.75;;;6.22;100.00
21431;BME280;10876;49.038;10.608;2023-03-01T09:57:47;99245.88;;;6.66;100.00
21431;BME280;10876;49.038;10.608;2023-03-01T10:00:33;99249.41;;;6.71;100.00
21431;BME280;10876;49.038;10.608;2023-03-01T10:03:12;99247.78;;;6.65;100.00
21431;BME280;10876;49.038;10.608;2023-03-01T10:05:47;99232.25;;;6.40;100.00
21431;BME280;10876;49.038;10.608;2023-03-01T10:08:27;99226.25;;;6.99;100.00
21431;BME280;10876;49.038;10.608;2023-03-01T10:10:57;99221.59;;;7.15;100.00
21431;BME280;10876;49.038;10.608;2023-03-01T10:13:29;99212.63;;;7.10;100.00
21431;BME280;10876;49.038;10.608;2023-03-01T10:16:03;99210.22;;;6.62;100.00
21431;BME280;10876;49.038;10.608;2023-03-01T10:18:32;99204.19;;;6.91;100.00
21431;BME280;10876;49.038;10.608;2023-03-01T10:21:12;99204.50;;;6.79;100.00
21431;BME280;10876;49.038;10.608;2023-03-01T10:23:41;99204.19;;;6.81;100.00
21431;BME280;10876;49.038;10.608;2023-03-01T10:29:11;99213.31;;;7.51;100.00
21431;BME280;10876;49.038;10.608;2023-03-01T10:31:42;99198.16;;;7.25;100.00
21431;BME280;10876;49.038;10.608;2023-03-01T10:34:16;99190.06;;;6.79;100.00
21431;BME280;10876;49.038;10.608;2023-03-01T10:36:44;99183.56;;;6.64;100.00
21431;BME280;10876;49.038;10.608;2023-03-01T10:39:18;99191.69;;;6.18;100.00
21431;BME280;10876;49.038;10.608;2023-03-01T10:41:58;99174.53;;;6.79;100.00
21431;BME280;10876;49.038;10.608;2023-03-01T10:44:38;99175.09;;;6.66;100.00
21431;BME280;10876;49.038;10.608;2023-03-01T10:47:13;99168.19;;;7.14;100.00
21431;BME280;10876;49.038;10.608;2023-03-01T10:49:52;99166.94;;;6.61;100.00
21431;BME280;10876;49.038;10.608;2023-03-01T10:52:22;99162.00;;;6.88;100.00
21431;BME280;10876;49.038;10.608;2023-03-01T10:54:56;99158.22;;;6.79;100.00
21431;BME280;10876;49.038;10.608;2023-03-01T10:57:35;99149.50;;;6.87;100.00
21431;BME280;10876;49.038;10.608;2023-03-01T11:00:19;99139.19;;;6.48;100.00
21431;BME280;10876;49.038;10.608;2023-03-01T11:02:49;99138.34;;;6.73;100.00
21431;BME280;10876;49.038;10.608;2023-03-01T11:05:20;99130.94;;;7.05;100.00
21431;BME280;10876;49.038;10.608;2023-03-01T11:07:51;99111.47;;;7.32;100.00
21431;BME280;10876;49.038;10.608;2023-03-01T11:10:22;99126.38;;;6.69;100.00
21431;BME280;10876;49.038;10.608;2023-03-01T11:12:50;99113.22;;;7.02;100.00
21431;BME280;10876;49.038;10.608;2023-03-01T11:15:24;99108.84;;;7.06;100.00
21431;BME280;10876;49.038;10.608;2023-03-01T11:17:56;99093.19;;;7.37;100.00
21431;BME280;10876;49.038;10.608;2023-03-01T11:20:31;99097.50;;;7.88;100.00
21431;BME280;10876;49.038;10.608;2023-03-01T11:23:03;99088.19;;;7.55;100.00
21431;BME280;10876;49.038;10.608;2023-03-01T11:25:35;99100.69;;;8.00;100.00
21431;BME280;10876;49.038;10.608;2023-03-01T11:28:05;99098.97;;;7.20;100.00
21431;BME280;10876;49.038;10.608;2023-03-01T11:30:39;99088.56;;;7.82;100.00
21431;BME280;10876;49.038;10.608;2023-03-01T11:33:15;99071.28;;;7.92;100.00
21431;BME280;10876;49.038;10.608;2023-03-01T11:35:50;99071.00;;;7.99;100.00
21431;BME280;10876;49.038;10.608;2023-03-01T11:38:23;99065.88;;;7.48;100.00
21431;BME280;10876;49.038;10.608;2023-03-01T11:40:55;99065.06;;;7.47;100.00
21431;BME280;10876;49.038;10.608;2023-03-01T11:43:40;99065.25;;;7.11;100.00
21431;BME280;10876;49.038;10.608;2023-03-01T11:46:47;99062.88;;;6.89;100.00
21431;BME280;10876;49.038;10.608;2023-03-01T11:52:17;99051.63;;;7.95;100.00
21431;BME280;10876;49.038;10.608;2023-03-01T11:55:02;99055.66;;;7.68;100.00
21431;BME280;10876;49.038;10.608;2023-03-01T11:57:49;99036.19;;;7.46;100.00
21431;BME280;10876;49.038;10.608;2023-03-01T12:00:42;99023.16;;;7.38;100.00
21431;BME280;10876;49.038;10.608;2023-03-01T12:03:32;99027.81;;;7.72;100.00
21431;BME280;10876;49.038;10.608;2023-03-01T12:09:05;99030.84;;;7.26;100.00
21431;BME280;10876;49.038;10.608;2023-03-01T12:11:41;99041.50;;;7.66;100.00
21431;BME280;10876;49.038;10.608;2023-03-01T12:14:43;99020.19;;;7.74;100.00
21431;BME280;10876;49.038;10.608;2023-03-01T12:17:29;99010.44;;;7.67;100.00
21431;BME280;10876;49.038;10.608;2023-03-01T12:20:15;99013.25;;;7.52;100.00
21431;BME280;10876;49.038;10.608;2023-03-01T12:22:54;99015.94;;;7.57;100.00
21431;BME280;10876;49.038;10.608;2023-03-01T12:25:28;99007.56;;;7.49;100.00
21431;BME280;10876;49.038;10.608;2023-03-01T12:28:27;99007.59;;;7.78;100.00
21431;BME280;10876;49.038;10.608;2023-03-01T12:31:22;98982.78;;;8.08;100.00
21431;BME280;10876;49.038;10.608;2023-03-01T12:34:01;98971.75;;;7.60;100.00
21431;BME280;10876;49.038;10.608;2023-03-01T12:36:44;98966.50;;;7.98;100.00
21431;BME280;10876;49.038;10.608;2023-03-01T12:39:34;98956.75;;;8.21;100.00
21431;BME280;10876;49.038;10.608;2023-03-01T12:42:07;98957.44;;;8.32;100.00
21431;BME280;10876;49.038;10.608;2023-03-01T12:44:50;98956.50;;;8.18;100.00
21431;BME280;10876;49.038;10.608;2023-03-01T12:47:37;98951.03;;;7.64;100.00
21431;BME280;10876;49.038;10.608;2023-03-01T12:50:16;98949.09;;;7.94;100.00
21431;BME280;10876;49.038;10.608;2023-03-01T12:52:49;98932.88;;;8.08;100.00
21431;BME280;10876;49.038;10.608;2023-03-01T12:55:27;98936.09;;;7.86;100.00
21431;BME280;10876;49.038;10.608;2023-03-01T12:58:03;98940.97;;;7.89;100.00
21431;BME280;10876;49.038;10.608;2023-03-01T13:00:37;98932.22;;;7.92;100.00
21431;BME280;10876;49.038;10.608;2023-03-01T13:03:17;98944.41;;;8.24;100.00
21431;BME280;10876;49.038;10.608;2023-03-01T13:05:59;98932.38;;;8.01;100.00
21431;BME280;10876;49.038;10.608;2023-03-01T13:08:31;98936.81;;;7.97;100.00
21431;BME280;10876;49.038;10.608;2023-03-01T13:11:06;;;;7.70;
21431;BME280;10876;49.038;10.608;2023-03-01T13:13:38;98936.66;;;7.83;100.00
21431;BME280;10876;49.038;10.608;2023-03-01T13:16:22;98940.53;;;7.77;100.00
21431;BME280;10876;49.038;10.608;2023-03-01T13:19:06;98936.28;;;7.65;100.00
21431;BME280;10876;49.038;10.608;2023-03-01T13:21:33;98945.22;;;7.71;100.00
21431;BME280;10876;49.038;10.608;2023-03-01T13:24:00;98939.16;;;7.79;100.00
21431;BME280;10876;49.038;10.608;2023-03-01T13:26:27;98936.19;;;7.76;100.00
21431;BME280;10876;49.038;10.608;2023-03-01T13:28:56;98937.81;;;7.77;100.00
21431;BME280;10876;49.038;10.608;2023-03-01T13:31:58;98927.66;;;8.11;100.00
21431;BME280;10876;49.038;10.608;2023-03-01T13:34:54;98922.41;;;8.15;100.00
21431;BME280;10876;49.038;10.608;2023-03-01T13:37:28;98927.38;;;7.84;100.00
21431;BME280;10876;49.038;10.608;2023-03-01T13:39:58;98924.59;;;7.60;100.00
21431;BME280;10876;49.038;10.608;2023-03-01T13:42:33;98921.16;;;7.49;100.00
21431;BME280;10876;49.038;10.608;2023-03-01T13:45:04;98919.88;;;7.71;100.00
21431;BME280;10876;49.038;10.608;2023-03-01T13:47:36;98922.06;;;7.68;100.00
21431;BME280;10876;49.038;10.608;2023-03-01T13:50:06;98926.38;;;7.75;100.00